Time;durP1;ratioP1;P1;durP2;ratioP2;P2;SDS_P1;SDS_P2;PMS_P1;PMS_P2;Temp;Humidity;BMP_temperature;BMP_pressure;BME280_temperature;BME280_humidity;BME280_pressure;Samples;Min_cycle;Max_cycle;Signal;HPM_P1;HPM_P2
2024/01/03 15:24:23;;;;;;;3.20;1.77;;;;;;;7.09;97.92;91555.75;5046680;28;20368;-81
2024/01/03 15:26:50;;;;;;;3.17;1.90;;;;;;;6.99;100.00;91550.69;5043533;28;20065;-78
2024/01/03 15:29:15;;;;;;;3.58;1.90;;;;;;;6.90;100.00;91546.44;5045748;28;21518;-78
2024/01/03 15:31:41;;;;;;;3.78;2.08;;;;;;;6.81;100.00;91533.31;5041241;28;20509;-80
2024/01/03 15:34:06;;;;;;;4.68;2.10;;;;;;;6.79;100.00;91544.00;5039953;28;20404;-77
2024/01/03 15:36:32;;;;;;;6.85;2.20;;;;;;;6.63;100.00;91535.69;5040302;28;20124;-78
2024/01/03 15:38:57;;;;;;;3.45;1.88;;;;;;;6.64;100.00;91541.63;5041570;28;20658;-78
2024/01/03 15:41:23;;;;;;;3.72;2.00;;;;;;;6.56;100.00;91537.09;5042071;28;20106;-78
2024/01/03 15:43:48;;;;;;;3.45;1.90;;;;;;;6.46;100.00;91531.00;5040906;28;20079;-79
2024/01/03 15:46:14;;;;;;;3.03;1.73;;;;;;;6.38;100.00;91531.66;5040515;28;20581;-79
2024/01/03 15:48:39;;;;;;;2.78;1.70;;;;;;;6.35;100.00;91541.81;5039815;28;20493;-79
2024/01/03 15:51:05;;;;;;;5.00;1.65;;;;;;;6.21;100.00;91536.56;5037793;28;20064;-78
2024/01/03 15:53:31;;;;;;;3.28;1.80;;;;;;;6.13;100.00;91542.41;5036168;28;20029;-78
2024/01/03 15:55:57;;;;;;;7.18;2.25;;;;;;;5.94;100.00;91537.97;5017947;28;20116;-78
2024/01/03 15:58:23;;;;;;;7.15;3.22;;;;;;;5.80;100.00;91543.06;5035103;28;20128;-78
2024/01/03 16:00:49;;;;;;;7.80;4.65;;;;;;;5.69;100.00;91552.03;5042780;28;20033;-78
2024/01/03 16:03:15;;;;;;;6.63;3.03;;;;;;;5.61;100.00;91553.41;5041935;28;20052;-77
2024/01/03 16:05:41;;;;;;;3.50;2.20;;;;;;;5.51;100.00;91566.50;5042013;28;20028;-78
2024/01/03 16:08:06;;;;;;;4.13;2.50;;;;;;;5.40;100.00;91567.66;5037601;28;20029;-77
2024/01/03 16:10:32;;;;;;;4.32;2.38;;;;;;;5.37;100.00;91570.81;5039474;28;20069;-77
2024/01/03 16:12:58;;;;;;;6.60;2.10;;;;;;;5.24;100.00;91566.28;5043088;28;20027;-79
2024/01/03 16:15:24;;;;;;;3.33;1.83;;;;;;;5.09;100.00;91559.41;5033719;28;20038;-77
2024/01/03 16:17:49;;;;;;;3.78;1.98;;;;;;;5.00;100.00;91562.63;5031432;28;20037;-78
2024/01/03 16:20:15;;;;;;;5.28;2.10;;;;;;;4.93;100.00;91557.00;5034995;28;20578;-78
2024/01/03 16:22:41;;;;;;;4.85;3.08;;;;;;;4.90;100.00;91548.97;5034632;28;20037;-78
2024/01/03 16:25:10;;;;;;;4.88;3.03;;;;;;;4.92;100.00;91570.22;5038045;28;20045;-77
2024/01/03 16:27:41;;;;;;;5.50;2.90;;;;;;;4.89;100.00;91563.78;5039641;28;20033;-78
2024/01/03 16:30:07;;;;;;;3.50;2.20;;;;;;;4.71;100.00;91554.84;5039001;28;20041;-78
2024/01/03 16:32:33;;;;;;;3.95;1.98;;;;;;;4.64;100.00;91559.59;5033850;28;20029;-78
2024/01/03 16:34:59;;;;;;;4.80;2.35;;;;;;;4.56;100.00;91547.97;5027890;28;20040;-78
2024/01/03 16:37:25;;;;;;;5.97;2.60;;;;;;;4.51;100.00;91535.06;5029565;28;20030;-80
2024/01/03 16:39:50;;;;;;;3.97;2.22;;;;;;;4.48;100.00;91535.59;5028284;28;20274;-78
2024/01/03 16:42:17;;;;;;;3.92;2.20;;;;;;;4.47;100.00;91535.88;5029589;28;20474;-78
2024/01/03 16:44:43;;;;;;;5.20;3.00;;;;;;;4.42;100.00;91548.88;5027006;28;20033;-79
2024/01/03 16:47:08;;;;;;;4.95;2.67;;;;;;;4.34;100.00;91555.38;5029162;28;20034;-79
2024/01/03 16:49:34;;;;;;;4.65;2.30;;;;;;;4.28;100.00;91557.25;5031716;28;20048;-80
2024/01/03 16:51:59;;;;;;;4.72;2.40;;;;;;;4.23;100.00;91541.72;5031764;28;20377;-79
2024/01/03 16:54:25;;;;;;;5.32;2.30;;;;;;;4.15;100.00;91524.94;5032812;28;20104;-79
2024/01/03 16:56:51;;;;;;;4.28;2.03;;;;;;;4.15;100.00;91542.31;5026830;28;20049;-79
2024/01/03 16:59:19;;;;;;;4.15;2.20;;;;;;;4.10;100.00;91539.78;5027665;28;20131;-79
2024/01/03 17:01:46;;;;;;;5.35;2.40;;;;;;;4.04;100.00;91541.59;5022003;28;20037;-81
2024/01/03 17:04:15;;;;;;;3.88;2.30;;;;;;;4.07;100.00;91535.09;5029454;28;20756;-80
2024/01/03 17:06:42;;;;;;;4.13;1.90;;;;;;;4.09;100.00;91538.97;5030356;28;20033;-80
2024/01/03 17:09:13;;;;;;;5.05;2.20;;;;;;;4.12;100.00;91537.66;5032006;28;20045;-80
2024/01/03 17:11:38;;;;;;;3.38;1.90;;;;;;;4.14;100.00;91530.38;5031311;28;20044;-81
2024/01/03 17:14:05;;;;;;;3.50;1.98;;;;;;;4.08;100.00;91515.94;5022654;28;20041;-80
2024/01/03 17:16:33;;;;;;;3.83;2.22;;;;;;;4.08;100.00;91515.94;5025942;28;20041;-79
2024/01/03 17:18:58;;;;;;;4.03;2.10;;;;;;;4.06;100.00;91520.63;5025219;28;20032;-79
2024/01/03 17:21:25;;;;;;;4.68;2.15;;;;;;;4.03;100.00;91516.75;5026243;28;20092;-79
2024/01/03 17:23:51;;;;;;;4.25;2.10;;;;;;;4.04;100.00;91523.47;5029035;28;20057;-80
2024/01/03 17:26:25;;;;;;;4.90;2.20;;;;;;;4.04;100.00;91514.94;5028561;28;20048;-81
2024/01/03 17:28:53;;;;;;;3.92;2.10;;;;;;;3.97;100.00;91503.06;5034689;28;20049;-82
2024/01/03 17:31:22;;;;;;;15.50;6.70;;;;;;;3.97;100.00;91516.00;5037106;28;20106;-82
2024/01/03 17:33:47;;;;;;;10.52;5.05;;;;;;;3.96;100.00;91519.66;5026728;28;20033;-80
2024/01/03 17:36:13;;;;;;;5.70;3.47;;;;;;;3.88;100.00;91522.78;5036348;28;20041;-81
2024/01/03 17:38:43;;;;;;;5.55;3.08;;;;;;;3.88;100.00;91517.63;5036146;28;20041;-82
2024/01/03 17:41:18;;;;;;;4.18;2.53;;;;;;;3.84;100.00;91508.84;5037066;28;20038;-81
2024/01/03 17:43:44;;;;;;;4.95;2.70;;;;;;;3.84;100.00;91492.53;5038141;28;20033;-82
2024/01/03 17:46:11;;;;;;;5.20;2.72;;;;;;;3.79;100.00;91480.41;5033982;28;20140;-81
2024/01/03 17:48:39;;;;;;;4.20;2.50;;;;;;;3.75;100.00;91476.78;5037489;28;20041;-82
2024/01/03 17:51:05;;;;;;;6.53;4.13;;;;;;;3.74;100.00;91485.63;5034899;28;20400;-81
2024/01/03 17:53:31;;;;;;;4.90;3.22;;;;;;;3.69;100.00;91483.81;5033043;28;20108;-82
2024/01/03 17:55:59;;;;;;;5.50;2.97;;;;;;;3.68;100.00;91486.69;5032328;28;20036;-81
2024/01/03 17:58:25;;;;;;;4.80;2.80;;;;;;;3.67;100.00;91474.75;5024080;28;20065;-81
2024/01/03 18:00:51;;;;;;;5.13;3.15;;;;;;;3.65;100.00;91482.81;5035004;28;20072;-81
2024/01/03 18:03:16;;;;;;;4.65;2.78;;;;;;;3.65;100.00;91492.41;5034992;28;20033;-81
2024/01/03 18:05:43;;;;;;;6.40;2.80;;;;;;;3.62;100.00;91503.25;5032921;28;20071;-81
2024/01/03 18:08:09;;;;;;;5.32;2.47;;;;;;;3.60;100.00;91515.69;5029631;28;20102;-81
2024/01/03 18:10:35;;;;;;;5.28;2.03;;;;;;;3.55;100.00;91509.50;5034589;28;20092;-82
2024/01/03 18:13:02;;;;;;;3.75;2.10;;;;;;;3.55;100.00;91530.19;5033242;28;20041;-81
2024/01/03 18:15:28;;;;;;;3.10;1.92;;;;;;;3.53;100.00;91531.50;5034132;28;20572;-81
2024/01/03 18:17:53;;;;;;;3.67;1.90;;;;;;;3.50;100.00;91526.88;5031849;28;20304;-82
2024/01/03 18:20:19;;;;;;;3.42;2.05;;;;;;;3.48;100.00;91529.72;5033818;28;20374;-81
2024/01/03 18:22:47;;;;;;;4.55;2.28;;;;;;;3.47;100.00;91535.19;5026569;28;20123;-82
2024/01/03 18:25:13;;;;;;;4.20;2.10;;;;;;;3.44;100.00;91536.47;5033778;28;20136;-81
2024/01/03 18:27:39;;;;;;;6.38;2.67;;;;;;;3.49;100.00;91536.47;5030764;28;20453;-82
2024/01/03 18:30:09;;;;;;;5.07;2.60;;;;;;;3.50;100.00;91535.41;5032502;28;20068;-81
2024/01/03 18:32:35;;;;;;;7.47;3.53;;;;;;;3.43;100.00;91529.75;5031708;28;20045;-81
2024/01/03 18:35:02;;;;;;;7.35;4.45;;;;;;;3.39;100.00;91544.25;5034439;28;20509;-81
2024/01/03 18:37:28;;;;;;;8.30;5.57;;;;;;;3.33;100.00;91533.16;5032891;28;20053;-81
2024/01/03 18:39:54;;;;;;;12.75;5.20;;;;;;;3.30;100.00;91525.16;5025031;28;20254;-81
2024/01/03 18:42:19;;;;;;;6.55;3.63;;;;;;;3.28;100.00;91527.22;5034584;28;20176;-78
2024/01/03 18:44:45;;;;;;;5.70;3.20;;;;;;;3.26;100.00;91524.13;5030650;28;20025;-78
2024/01/03 18:47:10;;;;;;;5.25;2.47;;;;;;;3.24;100.00;91531.38;5029188;28;20379;-79
2024/01/03 18:49:36;;;;;;;6.47;4.20;;;;;;;3.20;100.00;91525.97;5027634;28;20726;-80
2024/01/03 18:52:01;;;;;;;6.30;4.00;;;;;;;3.17;100.00;91520.53;5034317;28;20037;-80
2024/01/03 18:54:27;;;;;;;5.57;3.15;;;;;;;3.15;100.00;91513.03;5034684;28;20045;-80
2024/01/03 18:56:53;;;;;;;4.32;2.80;;;;;;;3.12;100.00;91506.56;5011457;28;20095;-80
2024/01/03 18:59:18;;;;;;;4.97;2.75;;;;;;;3.08;100.00;91505.56;5027393;28;20452;-80
2024/01/03 19:01:44;;;;;;;6.70;4.80;;;;;;;3.18;100.00;91516.91;5031582;28;20041;-80
2024/01/03 19:04:14;;;;;;;11.85;3.55;;;;;;;3.26;100.00;91511.19;5015970;28;20455;-80
2024/01/03 19:06:39;;;;;;;6.97;3.97;;;;;;;3.24;100.00;91502.91;5032733;28;20107;-80
2024/01/03 19:09:05;;;;;;;8.63;3.70;;;;;;;3.22;100.00;91497.22;5032972;28;20420;-80
2024/01/03 19:11:31;;;;;;;6.60;3.55;;;;;;;3.15;100.00;91504.50;5031803;28;20045;-79
2024/01/03 19:13:56;;;;;;;7.80;3.80;;;;;;;3.12;100.00;91504.00;5012745;28;20054;-80
2024/01/03 19:16:22;;;;;;;5.72;3.45;;;;;;;3.08;100.00;91515.13;5026857;28;21562;-79
2024/01/03 19:18:47;;;;;;;7.25;2.85;;;;;;;3.01;100.00;91505.06;5009700;28;20037;-79
2024/01/03 19:21:13;;;;;;;5.75;2.88;;;;;;;2.92;100.00;91491.91;5032816;28;20072;-80
2024/01/03 19:23:38;;;;;;;5.28;2.80;;;;;;;2.92;100.00;91491.13;5033416;28;20350;-80
2024/01/03 19:26:06;;;;;;;4.47;2.72;;;;;;;2.89;100.00;91489.06;5030012;28;20064;-80
2024/01/03 19:28:32;;;;;;;7.93;4.78;;;;;;;2.85;100.00;91485.47;5025710;28;20452;-80
2024/01/03 19:30:58;;;;;;;5.57;2.90;;;;;;;2.85;100.00;91490.63;5028711;28;20034;-80
2024/01/03 19:33:25;;;;;;;4.43;2.60;;;;;;;2.83;100.00;91501.22;5028872;28;20041;-80
2024/01/03 19:35:50;;;;;;;6.10;2.88;;;;;;;2.82;100.00;91486.00;5034428;28;20046;-80
2024/01/03 19:38:18;;;;;;;4.07;2.35;;;;;;;2.83;100.00;91490.13;5034962;28;20075;-80
2024/01/03 19:40:45;;;;;;;4.50;2.03;;;;;;;2.85;100.00;91493.22;5032636;28;20094;-80
2024/01/03 19:43:10;;;;;;;5.78;2.85;;;;;;;2.79;100.00;91495.06;5032836;28;20030;-80
2024/01/03 19:45:36;;;;;;;6.70;3.20;;;;;;;2.71;100.00;91500.75;5031391;28;20489;-80
2024/01/03 19:48:02;;;;;;;5.07;2.63;;;;;;;2.70;100.00;91499.97;5033373;28;20033;-80
2024/01/03 19:50:28;;;;;;;8.77;4.35;;;;;;;2.67;100.00;91508.25;5032894;28;20087;-80
2024/01/03 19:52:53;;;;;;;6.70;3.88;;;;;;;2.63;100.00;91504.63;5032394;28;20025;-80
2024/01/03 19:55:19;;;;;;;7.95;3.35;;;;;;;2.60;100.00;91512.91;5031243;28;20056;-79
2024/01/03 19:57:45;;;;;;;5.38;2.95;;;;;;;2.60;100.00;91527.66;5031307;28;20079;-80
2024/01/03 20:00:11;;;;;;;5.03;2.67;;;;;;;2.59;100.00;91526.88;5032256;28;20042;-80
2024/01/03 20:02:39;;;;;;;4.32;2.50;;;;;;;2.58;100.00;91525.31;5032801;28;20049;-81
2024/01/03 20:05:06;;;;;;;3.80;1.98;;;;;;;2.58;100.00;91527.91;5033323;28;20121;-79
2024/01/03 20:07:34;;;;;;;3.58;2.10;;;;;;;2.55;100.00;91523.25;5030511;28;20394;-80
2024/01/03 20:10:00;;;;;;;8.60;2.30;;;;;;;2.52;100.00;91523.75;5032704;28;20116;-80
2024/01/03 20:12:26;;;;;;;10.15;4.57;;;;;;;2.51;100.00;91524.81;5034621;28;20507;-80
2024/01/03 20:14:53;;;;;;;4.50;2.40;;;;;;;2.52;100.00;91534.09;5035521;28;20124;-80
2024/01/03 20:17:18;;;;;;;5.60;2.40;;;;;;;2.46;100.00;91525.59;5032536;28;20077;-80
2024/01/03 20:19:45;;;;;;;3.45;2.00;;;;;;;2.42;100.00;91523.78;5036259;28;20040;-80
2024/01/03 20:22:11;;;;;;;4.70;2.15;;;;;;;2.39;100.00;91513.97;5035586;28;20025;-80
2024/01/03 20:24:36;;;;;;;5.50;2.80;;;;;;;2.41;100.00;91512.69;5033106;28;20509;-80
2024/01/03 20:27:02;;;;;;;4.55;2.15;;;;;;;2.40;100.00;91505.19;5036242;28;20048;-80
2024/01/03 20:29:27;;;;;;;3.53;1.98;;;;;;;2.37;100.00;91511.66;5017255;28;20041;-80
2024/01/03 20:31:53;;;;;;;4.43;2.45;;;;;;;2.35;100.00;91515.53;5035792;28;20390;-80
2024/01/03 20:34:19;;;;;;;7.95;2.65;;;;;;;2.35;100.00;91529.22;5034246;28;20045;-79
2024/01/03 20:36:47;;;;;;;5.45;2.38;;;;;;;2.32;100.00;91536.69;5027177;28;20048;-79
2024/01/03 20:39:16;;;;;;;3.15;2.00;;;;;;;2.31;100.00;91522.25;5030234;28;20048;-80
2024/01/03 20:41:43;;;;;;;3.63;2.33;;;;;;;2.29;100.00;91512.94;5032719;28;20089;-80
2024/01/03 20:44:09;;;;;;;6.35;2.55;;;;;;;2.32;100.00;91528.94;5035000;28;20045;-80
2024/01/03 20:46:35;;;;;;;4.07;2.50;;;;;;;2.32;100.00;91516.03;5035325;28;20033;-80
2024/01/03 20:49:01;;;;;;;3.65;2.08;;;;;;;2.31;100.00;91517.06;5031622;28;20409;-80
2024/01/03 20:51:27;;;;;;;4.82;2.47;;;;;;;2.32;100.00;91509.06;5026733;28;20037;-79
2024/01/03 20:53:53;;;;;;;3.95;2.35;;;;;;;2.33;100.00;91504.69;5028530;28;20025;-79
2024/01/03 20:56:19;;;;;;;5.18;2.55;;;;;;;2.31;100.00;91494.59;5035633;28;20056;-80
2024/01/03 20:58:45;;;;;;;5.20;2.75;;;;;;;2.29;100.00;91483.75;5013811;28;20095;-79
2024/01/03 21:01:10;;;;;;;4.85;2.60;;;;;;;2.32;100.00;91482.44;5033465;28;20037;-80
2024/01/03 21:03:40;;;;;;;4.85;2.33;;;;;;;2.32;100.00;91500.53;5033643;28;20124;-80
2024/01/03 21:06:07;;;;;;;5.30;2.53;;;;;;;2.31;100.00;91507.50;5035698;28;20543;-80
2024/01/03 21:08:34;;;;;;;6.05;2.92;;;;;;;2.33;100.00;91509.84;5035911;28;20041;-79
2024/01/03 21:11:00;;;;;;;6.22;2.70;;;;;;;2.32;100.00;91500.53;5027779;28;20052;-80
2024/01/03 21:13:26;;;;;;;7.10;3.55;;;;;;;2.46;100.00;91494.59;5026897;28;20096;-80
2024/01/03 21:15:51;;;;;;;10.55;5.00;;;;;;;2.58;100.00;91491.72;5035288;28;20041;-80
2024/01/03 21:18:17;;;;;;;9.57;4.22;;;;;;;2.54;100.00;91495.84;5033355;28;20171;-79
2024/01/03 21:20:43;;;;;;;7.57;3.50;;;;;;;2.52;100.00;91503.09;5032142;28;20037;-80
2024/01/03 21:23:08;;;;;;;6.70;3.35;;;;;;;2.48;100.00;91496.91;5027148;28;20038;-80
2024/01/03 21:25:34;;;;;;;5.97;2.70;;;;;;;2.43;100.00;91494.31;5032807;28;20501;-79
2024/01/03 21:27:59;;;;;;;6.28;2.80;;;;;;;2.40;100.00;91502.59;5034941;28;20048;-80
2024/01/03 21:30:25;;;;;;;4.15;2.25;;;;;;;2.33;100.00;91487.38;5034509;28;20037;-80
2024/01/03 21:32:51;;;;;;;4.57;2.75;;;;;;;2.31;100.00;91499.75;5033667;28;20342;-80
2024/01/03 21:35:16;;;;;;;5.32;2.33;;;;;;;2.31;100.00;91506.75;5026955;28;20029;-80
2024/01/03 21:37:42;;;;;;;3.88;2.10;;;;;;;2.30;100.00;91500.81;5034078;28;20033;-80
2024/01/03 21:40:08;;;;;;;3.50;2.10;;;;;;;2.28;100.00;91488.16;5034543;28;20049;-79
2024/01/03 21:42:33;;;;;;;5.90;2.50;;;;;;;2.28;100.00;91475.22;5034020;28;20037;-80
2024/01/03 21:44:59;;;;;;;4.65;2.42;;;;;;;2.28;100.00;91482.22;5035212;28;20029;-80
2024/01/03 21:47:25;;;;;;;4.22;2.40;;;;;;;2.28;100.00;91484.78;5026268;28;20037;-80
2024/01/03 21:49:50;;;;;;;5.50;2.40;;;;;;;2.25;100.00;91483.50;5034723;28;20022;-80
2024/01/03 21:52:16;;;;;;;4.63;2.60;;;;;;;2.18;100.00;91485.56;5032361;28;20042;-80
2024/01/03 21:54:41;;;;;;;4.05;2.20;;;;;;;2.19;100.00;91488.94;5015745;28;20053;-80
2024/01/03 21:57:07;;;;;;;3.88;2.20;;;;;;;2.17;100.00;91507.25;5028064;28;20041;-80
2024/01/03 21:59:32;;;;;;;4.32;2.40;;;;;;;2.12;100.00;91504.69;5026289;28;20040;-80
2024/01/03 22:01:58;;;;;;;3.65;2.28;;;;;;;2.11;100.00;91504.94;5033185;28;20033;-80
2024/01/03 22:04:23;;;;;;;4.78;2.40;;;;;;;2.12;100.00;91515.00;5033941;28;20030;-80
2024/01/03 22:06:49;;;;;;;4.78;2.55;;;;;;;2.11;100.00;91502.34;5031428;28;20041;-80
2024/01/03 22:09:14;;;;;;;4.13;2.15;;;;;;;2.05;100.00;91504.94;5029019;28;20030;-80
2024/01/03 22:11:42;;;;;;;4.63;2.17;;;;;;;2.06;100.00;91514.22;5034184;28;20037;-80
2024/01/03 22:14:10;;;;;;;3.72;2.20;;;;;;;2.03;100.00;91501.84;5027512;28;20017;-80
2024/01/03 22:16:35;;;;;;;3.85;2.30;;;;;;;2.01;100.00;91483.25;5031836;28;20249;-80
